sensor_id;sensor_type;location;lat;lon;timestamp;P1;durP1;ratioP1;P2;durP2;ratioP2
76852;SDS011;65825;52.232;10.566;2023-06-10T00:01:26;7.93;;;4.13;;
76852;SDS011;65825;52.232;10.566;2023-06-10T00:03:52;8.00;;;3.95;;
76852;SDS011;65825;52.232;10.566;2023-06-10T00:06:18;8.85;;;4.35;;
76852;SDS011;65825;52.232;10.566;2023-06-10T00:08:43;11.60;;;4.57;;
76852;SDS011;65825;52.232;10.566;2023-06-10T00:11:08;9.68;;;4.32;;
76852;SDS011;65825;52.232;10.566;2023-06-10T00:13:33;9.15;;;4.25;;
76852;SDS011;65825;52.232;10.566;2023-06-10T00:15:59;10.25;;;4.38;;
76852;SDS011;65825;52.232;10.566;2023-06-10T00:18:24;10.90;;;4.63;;
76852;SDS011;65825;52.232;10.566;2023-06-10T00:20:51;7.70;;;4.05;;
76852;SDS011;65825;52.232;10.566;2023-06-10T00:23:20;10.38;;;4.63;;
76852;SDS011;65825;52.232;10.566;2023-06-10T00:25:46;10.48;;;4.40;;
76852;SDS011;65825;52.232;10.566;2023-06-10T00:28:11;12.05;;;4.32;;
76852;SDS011;65825;52.232;10.566;2023-06-10T00:30:39;9.95;;;4.00;;
76852;SDS011;65825;52.232;10.566;2023-06-10T00:33:04;17.10;;;4.57;;
76852;SDS011;65825;52.232;10.566;2023-06-10T00:35:29;9.07;;;4.00;;
76852;SDS011;65825;52.232;10.566;2023-06-10T00:37:55;7.73;;;4.03;;
76852;SDS011;65825;52.232;10.566;2023-06-10T00:40:20;8.40;;;4.60;;
76852;SDS011;65825;52.232;10.566;2023-06-10T00:42:45;7.18;;;4.05;;
76852;SDS011;65825;52.232;10.566;2023-06-10T00:45:10;7.67;;;4.43;;
76852;SDS011;65825;52.232;10.566;2023-06-10T00:47:36;10.70;;;4.60;;
76852;SDS011;65825;52.232;10.566;2023-06-10T00:50:01;11.15;;;4.40;;
76852;SDS011;65825;52.232;10.566;2023-06-10T00:52:28;10.02;;;4.50;;
76852;SDS011;65825;52.232;10.566;2023-06-10T00:54:55;10.10;;;4.45;;
76852;SDS011;65825;52.232;10.566;2023-06-10T00:57:24;10.75;;;4.47;;
76852;SDS011;65825;52.232;10.566;2023-06-10T00:59:52;9.60;;;4.50;;
76852;SDS011;65825;52.232;10.566;2023-06-10T01:02:17;9.00;;;5.00;;
76852;SDS011;65825;52.232;10.566;2023-06-10T01:04:45;10.88;;;4.88;;
76852;SDS011;65825;52.232;10.566;2023-06-10T01:07:22;11.32;;;4.82;;
76852;SDS011;65825;52.232;10.566;2023-06-10T01:09:54;8.80;;;4.90;;
76852;SDS011;65825;52.232;10.566;2023-06-10T01:12:39;9.88;;;4.95;;
76852;SDS011;65825;52.232;10.566;2023-06-10T01:15:13;9.27;;;4.70;;
76852;SDS011;65825;52.232;10.566;2023-06-10T01:17:59;9.98;;;4.95;;
76852;SDS011;65825;52.232;10.566;2023-06-10T01:20:34;6.47;;;4.57;;
76852;SDS011;65825;52.232;10.566;2023-06-10T01:23:02;10.27;;;4.93;;
76852;SDS011;65825;52.232;10.566;2023-06-10T01:25:28;8.43;;;4.63;;
76852;SDS011;65825;52.232;10.566;2023-06-10T01:30:28;12.15;;;4.78;;
76852;SDS011;65825;52.232;10.566;2023-06-10T01:32:58;9.55;;;4.68;;
76852;SDS011;65825;52.232;10.566;2023-06-10T01:35:25;10.27;;;5.00;;
76852;SDS011;65825;52.232;10.566;2023-06-10T01:37:54;12.02;;;4.97;;
76852;SDS011;65825;52.232;10.566;2023-06-10T01:40:21;10.82;;;5.30;;
76852;SDS011;65825;52.232;10.566;2023-06-10T01:42:48;9.32;;;5.18;;
76852;SDS011;65825;52.232;10.566;2023-06-10T01:45:14;9.65;;;5.40;;
76852;SDS011;65825;52.232;10.566;2023-06-10T01:47:39;11.63;;;5.28;;
76852;SDS011;65825;52.232;10.566;2023-06-10T01:50:04;16.13;;;5.90;;
76852;SDS011;65825;52.232;10.566;2023-06-10T01:52:30;11.13;;;5.18;;
76852;SDS011;65825;52.232;10.566;2023-06-10T01:54:55;12.38;;;5.65;;
76852;SDS011;65825;52.232;10.566;2023-06-10T01:57:21;11.47;;;5.17;;
76852;SDS011;65825;52.232;10.566;2023-06-10T01:59:46;11.33;;;5.50;;
76852;SDS011;65825;52.232;10.566;2023-06-10T02:02:11;12.93;;;5.85;;
76852;SDS011;65825;52.232;10.566;2023-06-10T02:04:37;10.05;;;5.70;;
76852;SDS011;65825;52.232;10.566;2023-06-10T02:07:02;11.90;;;5.45;;
76852;SDS011;65825;52.232;10.566;2023-06-10T02:09:29;10.20;;;5.70;;
76852;SDS011;65825;52.232;10.566;2023-06-10T02:11:59;15.75;;;5.97;;
76852;SDS011;65825;52.232;10.566;2023-06-10T02:14:25;11.18;;;5.32;;
76852;SDS011;65825;52.232;10.566;2023-06-10T02:16:53;10.65;;;5.40;;
76852;SDS011;65825;52.232;10.566;2023-06-10T02:19:21;9.20;;;5.18;;
76852;SDS011;65825;52.232;10.566;2023-06-10T02:21:47;10.35;;;6.10;;
76852;SDS011;65825;52.232;10.566;2023-06-10T02:24:12;17.83;;;5.80;;
76852;SDS011;65825;52.232;10.566;2023-06-10T02:26:38;14.73;;;5.70;;
76852;SDS011;65825;52.232;10.566;2023-06-10T02:29:03;11.17;;;6.10;;
76852;SDS011;65825;52.232;10.566;2023-06-10T02:31:28;10.38;;;5.40;;
76852;SDS011;65825;52.232;10.566;2023-06-10T02:33:53;11.33;;;5.53;;
76852;SDS011;65825;52.232;10.566;2023-06-10T02:36:19;13.75;;;6.22;;
76852;SDS011;65825;52.232;10.566;2023-06-10T02:38:46;14.13;;;6.18;;
76852;SDS011;65825;52.232;10.566;2023-06-10T02:41:12;15.85;;;6.60;;
76852;SDS011;65825;52.232;10.566;2023-06-10T02:43:37;12.13;;;5.83;;
76852;SDS011;65825;52.232;10.566;2023-06-10T02:46:02;13.27;;;6.00;;
76852;SDS011;65825;52.232;10.566;2023-06-10T02:48:27;12.60;;;6.07;;
76852;SDS011;65825;52.232;10.566;2023-06-10T02:50:53;16.33;;;5.82;;
76852;SDS011;65825;52.232;10.566;2023-06-10T02:53:18;10.93;;;5.90;;
76852;SDS011;65825;52.232;10.566;2023-06-10T02:55:43;9.90;;;6.18;;
76852;SDS011;65825;52.232;10.566;2023-06-10T02:58:09;14.05;;;6.30;;
76852;SDS011;65825;52.232;10.566;2023-06-10T03:00:34;13.68;;;5.88;;
76852;SDS011;65825;52.232;10.566;2023-06-10T03:03:01;9.25;;;5.95;;
76852;SDS011;65825;52.232;10.566;2023-06-10T03:07:53;14.20;;;6.25;;
76852;SDS011;65825;52.232;10.566;2023-06-10T03:10:19;13.80;;;6.07;;
76852;SDS011;65825;52.232;10.566;2023-06-10T03:12:44;13.32;;;6.55;;
76852;SDS011;65825;52.232;10.566;2023-06-10T03:15:09;12.20;;;6.27;;
76852;SDS011;65825;52.232;10.566;2023-06-10T03:17:35;19.25;;;7.00;;
76852;SDS011;65825;52.232;10.566;2023-06-10T03:20:00;23.70;;;6.87;;
76852;SDS011;65825;52.232;10.566;2023-06-10T03:22:25;12.23;;;6.87;;
76852;SDS011;65825;52.232;10.566;2023-06-10T03:24:50;15.20;;;6.70;;
76852;SDS011;65825;52.232;10.566;2023-06-10T03:27:16;15.20;;;6.03;;
76852;SDS011;65825;52.232;10.566;2023-06-10T03:29:41;16.13;;;7.03;;
76852;SDS011;65825;52.232;10.566;2023-06-10T03:32:07;9.95;;;6.30;;
76852;SDS011;65825;52.232;10.566;2023-06-10T03:34:32;14.82;;;6.38;;
76852;SDS011;65825;52.232;10.566;2023-06-10T03:36:58;16.00;;;6.45;;
76852;SDS011;65825;52.232;10.566;2023-06-10T03:39:24;12.95;;;6.18;;
76852;SDS011;65825;52.232;10.566;2023-06-10T03:44:16;12.02;;;6.13;;
76852;SDS011;65825;52.232;10.566;2023-06-10T03:46:41;13.93;;;7.27;;
76852;SDS011;65825;52.232;10.566;2023-06-10T03:49:06;15.30;;;6.78;;
76852;SDS011;65825;52.232;10.566;2023-06-10T03:51:35;16.58;;;7.65;;
76852;SDS011;65825;52.232;10.566;2023-06-10T03:54:01;13.23;;;6.63;;
76852;SDS011;65825;52.232;10.566;2023-06-10T03:56:26;14.35;;;6.72;;
76852;SDS011;65825;52.232;10.566;2023-06-10T03:58:51;11.27;;;7.03;;
76852;SDS011;65825;52.232;10.566;2023-06-10T04:01:16;12.00;;;6.47;;
76852;SDS011;65825;52.232;10.566;2023-06-10T04:06:08;13.77;;;6.55;;
76852;SDS011;65825;52.232;10.566;2023-06-10T04:08:33;19.23;;;6.80;;
76852;SDS011;65825;52.232;10.566;2023-06-10T04:10:59;12.67;;;6.50;;
76852;SDS011;65825;52.232;10.566;2023-06-10T04:13:24;17.00;;;6.70;;
76852;SDS011;65825;52.232;10.566;2023-06-10T04:15:50;19.20;;;6.90;;
76852;SDS011;65825;52.232;10.566;2023-06-10T04:18:15;14.95;;;6.95;;
76852;SDS011;65825;52.232;10.566;2023-06-10T04:20:41;16.35;;;6.88;;
76852;SDS011;65825;52.232;10.566;2023-06-10T04:23:06;12.45;;;6.35;;
76852;SDS011;65825;52.232;10.566;2023-06-10T04:25:31;16.60;;;6.47;;
76852;SDS011;65825;52.232;10.566;2023-06-10T04:27:57;15.37;;;7.10;;
76852;SDS011;65825;52.232;10.566;2023-06-10T04:30:22;15.33;;;6.53;;
76852;SDS011;65825;52.232;10.566;2023-06-10T04:32:47;12.17;;;5.90;;
76852;SDS011;65825;52.232;10.566;2023-06-10T04:35:13;13.93;;;6.32;;
76852;SDS011;65825;52.232;10.566;2023-06-10T04:37:39;13.80;;;6.82;;
76852;SDS011;65825;52.232;10.566;2023-06-10T04:40:04;12.55;;;6.82;;
76852;SDS011;65825;52.232;10.566;2023-06-10T04:44:56;13.67;;;6.47;;
76852;SDS011;65825;52.232;10.566;2023-06-10T04:47:21;20.27;;;7.20;;
76852;SDS011;65825;52.232;10.566;2023-06-10T04:49:46;12.13;;;6.38;;
76852;SDS011;65825;52.232;10.566;2023-06-10T04:52:11;10.17;;;6.37;;
76852;SDS011;65825;52.232;10.566;2023-06-10T04:54:38;20.80;;;7.28;;
76852;SDS011;65825;52.232;10.566;2023-06-10T04:57:04;16.52;;;7.75;;
76852;SDS011;65825;52.232;10.566;2023-06-10T04:59:31;14.70;;;6.45;;
76852;SDS011;65825;52.232;10.566;2023-06-10T05:01:56;14.48;;;7.07;;
76852;SDS011;65825;52.232;10.566;2023-06-10T05:04:21;14.30;;;6.85;;
76852;SDS011;65825;52.232;10.566;2023-06-10T05:06:47;12.03;;;6.60;;
76852;SDS011;65825;52.232;10.566;2023-06-10T05:09:12;13.23;;;7.30;;
76852;SDS011;65825;52.232;10.566;2023-06-10T05:11:37;14.65;;;7.70;;
76852;SDS011;65825;52.232;10.566;2023-06-10T05:14:03;19.05;;;6.70;;
76852;SDS011;65825;52.232;10.566;2023-06-10T05:16:28;13.32;;;6.85;;
76852;SDS011;65825;52.232;10.566;2023-06-10T05:18:54;15.30;;;6.83;;
76852;SDS011;65825;52.232;10.566;2023-06-10T05:21:19;21.83;;;6.90;;
76852;SDS011;65825;52.232;10.566;2023-06-10T05:26:11;24.73;;;7.40;;
76852;SDS011;65825;52.232;10.566;2023-06-10T05:28:36;18.30;;;7.43;;
76852;SDS011;65825;52.232;10.566;2023-06-10T05:31:01;14.50;;;6.97;;
76852;SDS011;65825;52.232;10.566;2023-06-10T05:33:26;12.80;;;6.87;;
76852;SDS011;65825;52.232;10.566;2023-06-10T05:35:52;13.13;;;6.50;;
76852;SDS011;65825;52.232;10.566;2023-06-10T05:38:17;16.60;;;7.03;;
76852;SDS011;65825;52.232;10.566;2023-06-10T05:40:42;13.40;;;6.60;;
76852;SDS011;65825;52.232;10.566;2023-06-10T05:43:07;18.27;;;6.53;;
76852;SDS011;65825;52.232;10.566;2023-06-10T05:45:34;13.23;;;6.65;;
76852;SDS011;65825;52.232;10.566;2023-06-10T05:47:59;18.83;;;7.28;;
76852;SDS011;65825;52.232;10.566;2023-06-10T05:50:25;17.57;;;7.00;;
76852;SDS011;65825;52.232;10.566;2023-06-10T05:52:50;15.75;;;7.07;;
76852;SDS011;65825;52.232;10.566;2023-06-10T05:55:18;14.57;;;7.30;;
76852;SDS011;65825;52.232;10.566;2023-06-10T05:57:43;16.87;;;7.30;;
76852;SDS011;65825;52.232;10.566;2023-06-10T06:00:11;17.20;;;7.43;;
76852;SDS011;65825;52.232;10.566;2023-06-10T06:02:37;19.20;;;7.00;;
76852;SDS011;65825;52.232;10.566;2023-06-10T06:05:02;14.73;;;6.93;;
76852;SDS011;65825;52.232;10.566;2023-06-10T06:07:27;15.73;;;6.95;;
76852;SDS011;65825;52.232;10.566;2023-06-10T06:09:53;17.27;;;7.17;;
76852;SDS011;65825;52.232;10.566;2023-06-10T06:12:18;12.00;;;6.37;;
76852;SDS011;65825;52.232;10.566;2023-06-10T06:14:43;17.15;;;6.88;;
76852;SDS011;65825;52.232;10.566;2023-06-10T06:17:09;17.58;;;6.50;;
76852;SDS011;65825;52.232;10.566;2023-06-10T06:19:35;12.55;;;6.47;;
76852;SDS011;65825;52.232;10.566;2023-06-10T06:22:00;16.30;;;6.85;;
76852;SDS011;65825;52.232;10.566;2023-06-10T06:24:26;12.40;;;6.13;;
76852;SDS011;65825;52.232;10.566;2023-06-10T06:26:51;11.32;;;6.13;;
76852;SDS011;65825;52.232;10.566;2023-06-10T06:29:16;14.90;;;6.30;;
76852;SDS011;65825;52.232;10.566;2023-06-10T06:31:41;10.80;;;6.30;;
76852;SDS011;65825;52.232;10.566;2023-06-10T06:34:07;13.53;;;6.60;;
76852;SDS011;65825;52.232;10.566;2023-06-10T06:36:32;14.90;;;6.90;;
76852;SDS011;65825;52.232;10.566;2023-06-10T06:38:57;13.37;;;6.73;;
76852;SDS011;65825;52.232;10.566;2023-06-10T06:41:23;16.65;;;6.70;;
76852;SDS011;65825;52.232;10.566;2023-06-10T06:43:50;12.40;;;6.45;;
76852;SDS011;65825;52.232;10.566;2023-06-10T06:46:16;14.27;;;6.37;;
76852;SDS011;65825;52.232;10.566;2023-06-10T06:48:41;15.20;;;6.50;;
76852;SDS011;65825;52.232;10.566;2023-06-10T06:51:06;14.53;;;6.83;;
76852;SDS011;65825;52.232;10.566;2023-06-10T06:53:31;17.30;;;6.77;;
76852;SDS011;65825;52.232;10.566;2023-06-10T06:55:57;11.87;;;6.03;;
76852;SDS011;65825;52.232;10.566;2023-06-10T06:58:22;16.52;;;6.00;;
76852;SDS011;65825;52.232;10.566;2023-06-10T07:00:47;10.50;;;5.87;;
76852;SDS011;65825;52.232;10.566;2023-06-10T07:03:13;17.20;;;6.53;;
76852;SDS011;65825;52.232;10.566;2023-06-10T07:05:38;12.63;;;6.63;;
76852;SDS011;65825;52.232;10.566;2023-06-10T07:08:03;13.27;;;6.00;;
76852;SDS011;65825;52.232;10.566;2023-06-10T07:10:29;11.07;;;6.25;;
76852;SDS011;65825;52.232;10.566;2023-06-10T07:12:54;16.50;;;6.33;;
76852;SDS011;65825;52.232;10.566;2023-06-10T07:15:19;15.13;;;7.17;;
76852;SDS011;65825;52.232;10.566;2023-06-10T07:17:45;16.35;;;6.38;;
76852;SDS011;65825;52.232;10.566;2023-06-10T07:20:10;15.00;;;6.38;;
76852;SDS011;65825;52.232;10.566;2023-06-10T07:22:36;14.68;;;6.20;;
76852;SDS011;65825;52.232;10.566;2023-06-10T07:25:04;14.85;;;6.10;;
76852;SDS011;65825;52.232;10.566;2023-06-10T07:27:29;10.50;;;5.85;;
76852;SDS011;65825;52.232;10.566;2023-06-10T07:29:55;17.47;;;6.23;;
76852;SDS011;65825;52.232;10.566;2023-06-10T07:32:20;14.27;;;6.63;;
76852;SDS011;65825;52.232;10.566;2023-06-10T07:34:47;15.25;;;6.97;;
76852;SDS011;65825;52.232;10.566;2023-06-10T07:37:12;11.43;;;6.50;;
76852;SDS011;65825;52.232;10.566;2023-06-10T07:39:37;14.07;;;6.50;;
76852;SDS011;65825;52.232;10.566;2023-06-10T07:42:03;17.20;;;7.43;;
76852;SDS011;65825;52.232;10.566;2023-06-10T07:46:53;9.97;;;5.93;;
76852;SDS011;65825;52.232;10.566;2023-06-10T07:49:19;14.03;;;6.80;;
76852;SDS011;65825;52.232;10.566;2023-06-10T07:51:44;15.45;;;6.07;;
76852;SDS011;65825;52.232;10.566;2023-06-10T07:56:37;14.18;;;7.10;;
76852;SDS011;65825;52.232;10.566;2023-06-10T08:01:27;11.27;;;6.27;;
76852;SDS011;65825;52.232;10.566;2023-06-10T08:03:55;13.52;;;5.90;;
76852;SDS011;65825;52.232;10.566;2023-06-10T08:08:45;11.40;;;5.87;;
76852;SDS011;65825;52.232;10.566;2023-06-10T08:13:36;9.95;;;5.95;;
76852;SDS011;65825;52.232;10.566;2023-06-10T08:18:27;13.77;;;6.20;;
76852;SDS011;65825;52.232;10.566;2023-06-10T08:23:17;11.23;;;6.30;;
76852;SDS011;65825;52.232;10.566;2023-06-10T08:25:44;14.48;;;6.40;;
76852;SDS011;65825;52.232;10.566;2023-06-10T08:30:35;11.13;;;6.30;;
76852;SDS011;65825;52.232;10.566;2023-06-10T08:35:25;12.27;;;6.20;;
76852;SDS011;65825;52.232;10.566;2023-06-10T08:37:50;11.97;;;6.30;;
76852;SDS011;65825;52.232;10.566;2023-06-10T08:45:27;9.88;;;6.20;;
76852;SDS011;65825;52.232;10.566;2023-06-10T08:47:56;11.05;;;6.13;;
76852;SDS011;65825;52.232;10.566;2023-06-10T08:50:22;15.60;;;7.05;;
76852;SDS011;65825;52.232;10.566;2023-06-10T08:52:48;14.63;;;6.45;;
76852;SDS011;65825;52.232;10.566;2023-06-10T08:55:18;12.20;;;6.47;;
76852;SDS011;65825;52.232;10.566;2023-06-10T08:57:51;13.35;;;6.72;;
76852;SDS011;65825;52.232;10.566;2023-06-10T09:00:17;11.40;;;6.65;;
76852;SDS011;65825;52.232;10.566;2023-06-10T09:02:47;13.52;;;7.03;;
76852;SDS011;65825;52.232;10.566;2023-06-10T09:05:13;12.43;;;6.80;;
76852;SDS011;65825;52.232;10.566;2023-06-10T09:07:38;13.43;;;6.88;;
76852;SDS011;65825;52.232;10.566;2023-06-10T09:10:04;10.23;;;6.63;;
76852;SDS011;65825;52.232;10.566;2023-06-10T09:12:33;14.25;;;6.97;;
76852;SDS011;65825;52.232;10.566;2023-06-10T09:14:59;12.02;;;7.00;;
76852;SDS011;65825;52.232;10.566;2023-06-10T09:17:26;12.10;;;7.03;;
76852;SDS011;65825;52.232;10.566;2023-06-10T09:19:53;13.35;;;7.28;;
76852;SDS011;65825;52.232;10.566;2023-06-10T09:22:20;12.80;;;7.75;;
76852;SDS011;65825;52.232;10.566;2023-06-10T09:24:47;11.68;;;6.75;;
76852;SDS011;65825;52.232;10.566;2023-06-10T09:27:12;19.45;;;8.32;;
76852;SDS011;65825;52.232;10.566;2023-06-10T09:29:53;15.25;;;7.65;;
76852;SDS011;65825;52.232;10.566;2023-06-10T09:32:19;16.95;;;7.97;;
76852;SDS011;65825;52.232;10.566;2023-06-10T09:34:45;13.88;;;7.55;;
76852;SDS011;65825;52.232;10.566;2023-06-10T09:37:11;12.65;;;7.35;;
76852;SDS011;65825;52.232;10.566;2023-06-10T09:39:38;11.52;;;7.72;;
76852;SDS011;65825;52.232;10.566;2023-06-10T09:42:17;12.60;;;7.10;;
76852;SDS011;65825;52.232;10.566;2023-06-10T09:44:50;12.00;;;7.47;;
76852;SDS011;65825;52.232;10.566;2023-06-10T09:47:22;13.98;;;7.57;;
76852;SDS011;65825;52.232;10.566;2023-06-10T09:49:51;11.65;;;7.38;;
76852;SDS011;65825;52.232;10.566;2023-06-10T09:52:22;16.45;;;7.60;;
76852;SDS011;65825;52.232;10.566;2023-06-10T09:54:52;13.52;;;7.82;;
76852;SDS011;65825;52.232;10.566;2023-06-10T09:57:18;17.35;;;7.22;;
76852;SDS011;65825;52.232;10.566;2023-06-10T09:59:45;12.82;;;7.22;;
76852;SDS011;65825;52.232;10.566;2023-06-10T10:02:19;11.80;;;7.38;;
76852;SDS011;65825;52.232;10.566;2023-06-10T10:04:45;12.98;;;8.00;;
76852;SDS011;65825;52.232;10.566;2023-06-10T10:07:13;12.68;;;7.53;;
76852;SDS011;65825;52.232;10.566;2023-06-10T10:09:39;13.65;;;8.00;;
76852;SDS011;65825;52.232;10.566;2023-06-10T10:12:09;16.50;;;7.55;;
76852;SDS011;65825;52.232;10.566;2023-06-10T10:14:36;11.45;;;7.65;;
76852;SDS011;65825;52.232;10.566;2023-06-10T10:17:02;13.68;;;7.55;;
76852;SDS011;65825;52.232;10.566;2023-06-10T10:19:32;12.00;;;7.88;;
76852;SDS011;65825;52.232;10.566;2023-06-10T10:22:25;12.02;;;7.75;;
76852;SDS011;65825;52.232;10.566;2023-06-10T10:24:57;11.77;;;6.95;;
76852;SDS011;65825;52.232;10.566;2023-06-10T10:27:27;16.35;;;8.18;;
76852;SDS011;65825;52.232;10.566;2023-06-10T10:29:53;17.38;;;8.60;;
76852;SDS011;65825;52.232;10.566;2023-06-10T10:32:24;12.82;;;8.43;;
76852;SDS011;65825;52.232;10.566;2023-06-10T10:35:03;14.10;;;8.23;;
76852;SDS011;65825;52.232;10.566;2023-06-10T10:37:34;10.93;;;7.00;;
76852;SDS011;65825;52.232;10.566;2023-06-10T10:40:00;13.10;;;7.75;;
76852;SDS011;65825;52.232;10.566;2023-06-10T10:42:28;12.77;;;7.50;;
76852;SDS011;65825;52.232;10.566;2023-06-10T10:44:53;12.65;;;8.18;;
76852;SDS011;65825;52.232;10.566;2023-06-10T10:47:21;13.05;;;8.35;;
76852;SDS011;65825;52.232;10.566;2023-06-10T10:49:48;14.85;;;8.20;;
76852;SDS011;65825;52.232;10.566;2023-06-10T10:52:16;15.25;;;8.07;;
76852;SDS011;65825;52.232;10.566;2023-06-10T10:54:45;11.63;;;7.40;;
76852;SDS011;65825;52.232;10.566;2023-06-10T10:57:20;12.77;;;8.25;;
76852;SDS011;65825;52.232;10.566;2023-06-10T11:02:34;13.40;;;7.82;;
76852;SDS011;65825;52.232;10.566;2023-06-10T11:05:03;13.95;;;8.35;;
76852;SDS011;65825;52.232;10.566;2023-06-10T11:07:32;10.60;;;7.47;;
76852;SDS011;65825;52.232;10.566;2023-06-10T11:09:59;12.65;;;7.63;;
76852;SDS011;65825;52.232;10.566;2023-06-10T11:15:11;12.55;;;7.88;;
76852;SDS011;65825;52.232;10.566;2023-06-10T11:17:37;13.57;;;7.60;;
76852;SDS011;65825;52.232;10.566;2023-06-10T11:20:03;12.77;;;7.43;;
76852;SDS011;65825;52.232;10.566;2023-06-10T11:22:28;15.15;;;7.85;;
76852;SDS011;65825;52.232;10.566;2023-06-10T11:24:54;13.55;;;7.50;;
76852;SDS011;65825;52.232;10.566;2023-06-10T11:27:22;11.43;;;8.02;;
76852;SDS011;65825;52.232;10.566;2023-06-10T11:29:55;12.70;;;8.23;;
76852;SDS011;65825;52.232;10.566;2023-06-10T11:32:21;12.35;;;7.70;;
76852;SDS011;65825;52.232;10.566;2023-06-10T11:34:53;13.90;;;8.35;;
76852;SDS011;65825;52.232;10.566;2023-06-10T11:39:46;15.77;;;8.60;;
76852;SDS011;65825;52.232;10.566;2023-06-10T11:42:11;16.40;;;7.57;;
76852;SDS011;65825;52.232;10.566;2023-06-10T11:44:47;11.57;;;7.35;;
76852;SDS011;65825;52.232;10.566;2023-06-10T11:47:17;13.50;;;8.70;;
76852;SDS011;65825;52.232;10.566;2023-06-10T11:49:43;13.05;;;8.52;;
76852;SDS011;65825;52.232;10.566;2023-06-10T11:52:08;11.82;;;7.72;;
76852;SDS011;65825;52.232;10.566;2023-06-10T11:54:34;12.57;;;8.95;;
76852;SDS011;65825;52.232;10.566;2023-06-10T11:56:59;13.43;;;8.03;;
76852;SDS011;65825;52.232;10.566;2023-06-10T11:59:28;13.63;;;8.10;;
76852;SDS011;65825;52.232;10.566;2023-06-10T12:01:54;12.43;;;7.70;;
76852;SDS011;65825;52.232;10.566;2023-06-10T12:04:20;10.30;;;7.50;;
76852;SDS011;65825;52.232;10.566;2023-06-10T12:09:23;11.30;;;7.95;;
76852;SDS011;65825;52.232;10.566;2023-06-10T12:12:02;10.70;;;8.07;;
76852;SDS011;65825;52.232;10.566;2023-06-10T12:19:55;16.02;;;8.25;;
76852;SDS011;65825;52.232;10.566;2023-06-10T12:22:21;9.63;;;7.97;;
76852;SDS011;65825;52.232;10.566;2023-06-10T12:25:04;11.07;;;7.85;;
76852;SDS011;65825;52.232;10.566;2023-06-10T12:27:31;10.73;;;7.93;;
76852;SDS011;65825;52.232;10.566;2023-06-10T12:29:58;14.15;;;7.22;;
76852;SDS011;65825;52.232;10.566;2023-06-10T12:32:35;15.10;;;8.88;;
76852;SDS011;65825;52.232;10.566;2023-06-10T12:35:04;14.43;;;8.73;;
76852;SDS011;65825;52.232;10.566;2023-06-10T12:37:30;16.23;;;7.78;;
76852;SDS011;65825;52.232;10.566;2023-06-10T12:39:58;13.18;;;8.55;;
76852;SDS011;65825;52.232;10.566;2023-06-10T12:42:26;10.35;;;7.65;;
76852;SDS011;65825;52.232;10.566;2023-06-10T12:44:54;10.07;;;7.77;;
76852;SDS011;65825;52.232;10.566;2023-06-10T12:47:21;13.02;;;8.25;;
76852;SDS011;65825;52.232;10.566;2023-06-10T12:49:59;9.88;;;7.88;;
76852;SDS011;65825;52.232;10.566;2023-06-10T12:52:25;13.18;;;8.02;;
76852;SDS011;65825;52.232;10.566;2023-06-10T12:54:50;10.10;;;7.45;;
76852;SDS011;65825;52.232;10.566;2023-06-10T12:57:17;11.18;;;7.68;;
76852;SDS011;65825;52.232;10.566;2023-06-10T12:59:42;9.52;;;7.72;;
76852;SDS011;65825;52.232;10.566;2023-06-10T13:02:14;16.35;;;7.90;;
76852;SDS011;65825;52.232;10.566;2023-06-10T13:04:40;11.85;;;7.88;;
76852;SDS011;65825;52.232;10.566;2023-06-10T13:07:05;11.20;;;7.75;;
76852;SDS011;65825;52.232;10.566;2023-06-10T13:09:31;15.95;;;7.80;;
76852;SDS011;65825;52.232;10.566;2023-06-10T13:11:56;10.45;;;7.88;;
76852;SDS011;65825;52.232;10.566;2023-06-10T13:14:22;10.70;;;7.20;;
76852;SDS011;65825;52.232;10.566;2023-06-10T13:16:47;13.20;;;7.78;;
76852;SDS011;65825;52.232;10.566;2023-06-10T13:19:12;13.70;;;8.50;;
76852;SDS011;65825;52.232;10.566;2023-06-10T13:21:37;12.23;;;7.43;;
76852;SDS011;65825;52.232;10.566;2023-06-10T13:24:05;12.88;;;7.60;;
76852;SDS011;65825;52.232;10.566;2023-06-10T13:26:31;12.02;;;7.60;;
76852;SDS011;65825;52.232;10.566;2023-06-10T13:28:56;9.37;;;7.33;;
76852;SDS011;65825;52.232;10.566;2023-06-10T13:31:21;11.60;;;7.40;;
76852;SDS011;65825;52.232;10.566;2023-06-10T13:33:46;10.13;;;7.22;;
76852;SDS011;65825;52.232;10.566;2023-06-10T13:36:12;10.77;;;6.95;;
76852;SDS011;65825;52.232;10.566;2023-06-10T13:38:37;9.80;;;7.10;;
76852;SDS011;65825;52.232;10.566;2023-06-10T13:41:03;10.18;;;7.57;;
76852;SDS011;65825;52.232;10.566;2023-06-10T13:43:28;11.80;;;7.30;;
76852;SDS011;65825;52.232;10.566;2023-06-10T13:45:54;9.55;;;7.35;;
76852;SDS011;65825;52.232;10.566;2023-06-10T13:48:19;9.13;;;7.00;;
76852;SDS011;65825;52.232;10.566;2023-06-10T13:50:45;11.82;;;6.82;;
76852;SDS011;65825;52.232;10.566;2023-06-10T13:53:11;11.43;;;7.43;;
76852;SDS011;65825;52.232;10.566;2023-06-10T13:55:36;9.50;;;7.20;;
76852;SDS011;65825;52.232;10.566;2023-06-10T13:58:02;9.60;;;7.10;;
76852;SDS011;65825;52.232;10.566;2023-06-10T14:00:27;10.35;;;7.13;;
76852;SDS011;65825;52.232;10.566;2023-06-10T14:02:53;12.65;;;7.20;;
76852;SDS011;65825;52.232;10.566;2023-06-10T14:05:18;14.88;;;6.65;;
76852;SDS011;65825;52.232;10.566;2023-06-10T14:07:43;9.87;;;6.50;;
76852;SDS011;65825;52.232;10.566;2023-06-10T14:10:09;9.27;;;6.50;;
76852;SDS011;65825;52.232;10.566;2023-06-10T14:12:34;10.32;;;6.53;;
76852;SDS011;65825;52.232;10.566;2023-06-10T14:15:00;11.43;;;7.03;;
76852;SDS011;65825;52.232;10.566;2023-06-10T14:17:25;10.68;;;6.70;;
76852;SDS011;65825;52.232;10.566;2023-06-10T14:19:50;7.10;;;6.00;;
76852;SDS011;65825;52.232;10.566;2023-06-10T14:22:16;9.70;;;6.53;;
76852;SDS011;65825;52.232;10.566;2023-06-10T14:24:41;10.83;;;6.83;;
76852;SDS011;65825;52.232;10.566;2023-06-10T14:27:06;10.63;;;7.03;;
76852;SDS011;65825;52.232;10.566;2023-06-10T14:29:31;9.45;;;7.07;;
76852;SDS011;65825;52.232;10.566;2023-06-10T14:31:58;8.93;;;7.10;;
76852;SDS011;65825;52.232;10.566;2023-06-10T14:34:24;9.85;;;7.07;;
76852;SDS011;65825;52.232;10.566;2023-06-10T14:36:53;10.30;;;7.22;;
76852;SDS011;65825;52.232;10.566;2023-06-10T14:39:19;9.95;;;7.18;;
76852;SDS011;65825;52.232;10.566;2023-06-10T14:41:44;12.33;;;7.00;;
76852;SDS011;65825;52.232;10.566;2023-06-10T14:44:09;10.73;;;7.57;;
76852;SDS011;65825;52.232;10.566;2023-06-10T14:46:34;8.98;;;7.25;;
76852;SDS011;65825;52.232;10.566;2023-06-10T14:49:00;7.73;;;6.67;;
76852;SDS011;65825;52.232;10.566;2023-06-10T14:51:27;10.38;;;7.55;;
76852;SDS011;65825;52.232;10.566;2023-06-10T14:53:52;11.65;;;7.28;;
76852;SDS011;65825;52.232;10.566;2023-06-10T14:56:17;9.23;;;7.13;;
76852;SDS011;65825;52.232;10.566;2023-06-10T14:58:43;11.25;;;7.90;;
76852;SDS011;65825;52.232;10.566;2023-06-10T15:01:08;12.20;;;7.33;;
76852;SDS011;65825;52.232;10.566;2023-06-10T15:03:33;12.18;;;6.95;;
76852;SDS011;65825;52.232;10.566;2023-06-10T15:05:59;8.75;;;6.72;;
76852;SDS011;65825;52.232;10.566;2023-06-10T15:08:25;9.10;;;6.68;;
76852;SDS011;65825;52.232;10.566;2023-06-10T15:10:51;12.82;;;7.07;;
76852;SDS011;65825;52.232;10.566;2023-06-10T15:13:16;10.63;;;7.20;;
76852;SDS011;65825;52.232;10.566;2023-06-10T15:15:41;12.27;;;7.50;;
76852;SDS011;65825;52.232;10.566;2023-06-10T15:18:07;8.27;;;6.33;;